sensor_id;sensor_type;location;lat;lon;timestamp;P1;durP1;ratioP1;P2;durP2;ratioP2
6825;SDS011;3451;52.476;13.316;2023-04-25T00:00:48;5.27;;;2.53;;
6825;SDS011;3451;52.476;13.316;2023-04-25T00:03:14;5.97;;;2.60;;
6825;SDS011;3451;52.476;13.316;2023-04-25T00:05:41;4.60;;;3.07;;
6825;SDS011;3451;52.476;13.316;2023-04-25T00:08:07;4.77;;;2.20;;
6825;SDS011;3451;52.476;13.316;2023-04-25T00:10:34;5.17;;;2.10;;
6825;SDS011;3451;52.476;13.316;2023-04-25T00:13:00;8.17;;;2.50;;
6825;SDS011;3451;52.476;13.316;2023-04-25T00:15:29;5.53;;;2.10;;
6825;SDS011;3451;52.476;13.316;2023-04-25T00:17:58;4.83;;;2.30;;
6825;SDS011;3451;52.476;13.316;2023-04-25T00:20:25;3.27;;;2.13;;
6825;SDS011;3451;52.476;13.316;2023-04-25T00:22:51;4.00;;;2.10;;
6825;SDS011;3451;52.476;13.316;2023-04-25T00:25:19;6.00;;;2.20;;
6825;SDS011;3451;52.476;13.316;2023-04-25T00:27:45;8.77;;;2.83;;
6825;SDS011;3451;52.476;13.316;2023-04-25T00:30:12;4.90;;;2.27;;
6825;SDS011;3451;52.476;13.316;2023-04-25T00:32:38;6.90;;;2.33;;
6825;SDS011;3451;52.476;13.316;2023-04-25T00:35:05;6.43;;;2.80;;
6825;SDS011;3451;52.476;13.316;2023-04-25T00:37:32;5.53;;;2.20;;
6825;SDS011;3451;52.476;13.316;2023-04-25T00:39:58;4.87;;;2.50;;
6825;SDS011;3451;52.476;13.316;2023-04-25T00:42:25;5.83;;;2.43;;
6825;SDS011;3451;52.476;13.316;2023-04-25T00:44:51;3.10;;;2.17;;
6825;SDS011;3451;52.476;13.316;2023-04-25T00:47:18;6.93;;;2.87;;
6825;SDS011;3451;52.476;13.316;2023-04-25T00:49:44;5.33;;;2.23;;
6825;SDS011;3451;52.476;13.316;2023-04-25T00:52:11;6.53;;;2.80;;
6825;SDS011;3451;52.476;13.316;2023-04-25T00:54:37;7.93;;;3.07;;
6825;SDS011;3451;52.476;13.316;2023-04-25T00:57:04;4.10;;;2.50;;
6825;SDS011;3451;52.476;13.316;2023-04-25T00:59:30;5.07;;;2.73;;
6825;SDS011;3451;52.476;13.316;2023-04-25T01:01:57;9.63;;;2.70;;
6825;SDS011;3451;52.476;13.316;2023-04-25T01:04:24;10.33;;;2.77;;
6825;SDS011;3451;52.476;13.316;2023-04-25T01:06:50;6.17;;;2.73;;
6825;SDS011;3451;52.476;13.316;2023-04-25T01:09:17;6.20;;;2.87;;
6825;SDS011;3451;52.476;13.316;2023-04-25T01:11:43;5.47;;;2.60;;
6825;SDS011;3451;52.476;13.316;2023-04-25T01:14:10;6.53;;;2.83;;
6825;SDS011;3451;52.476;13.316;2023-04-25T01:16:36;5.87;;;2.63;;
6825;SDS011;3451;52.476;13.316;2023-04-25T01:19:05;5.53;;;2.60;;
6825;SDS011;3451;52.476;13.316;2023-04-25T01:21:32;6.00;;;3.00;;
6825;SDS011;3451;52.476;13.316;2023-04-25T01:23:58;10.20;;;3.27;;
6825;SDS011;3451;52.476;13.316;2023-04-25T01:26:24;5.70;;;2.73;;
6825;SDS011;3451;52.476;13.316;2023-04-25T01:28:51;5.70;;;2.67;;
6825;SDS011;3451;52.476;13.316;2023-04-25T01:31:17;10.27;;;3.20;;
6825;SDS011;3451;52.476;13.316;2023-04-25T01:33:44;4.97;;;2.43;;
6825;SDS011;3451;52.476;13.316;2023-04-25T01:36:11;4.27;;;2.67;;
6825;SDS011;3451;52.476;13.316;2023-04-25T01:38:38;7.53;;;3.13;;
6825;SDS011;3451;52.476;13.316;2023-04-25T01:41:06;5.97;;;3.10;;
6825;SDS011;3451;52.476;13.316;2023-04-25T01:43:32;6.90;;;3.00;;
6825;SDS011;3451;52.476;13.316;2023-04-25T01:45:59;6.60;;;2.67;;
6825;SDS011;3451;52.476;13.316;2023-04-25T01:48:25;6.53;;;2.90;;
6825;SDS011;3451;52.476;13.316;2023-04-25T01:50:52;5.57;;;2.73;;
6825;SDS011;3451;52.476;13.316;2023-04-25T01:53:18;8.77;;;3.00;;
6825;SDS011;3451;52.476;13.316;2023-04-25T01:55:44;4.93;;;2.73;;
6825;SDS011;3451;52.476;13.316;2023-04-25T01:58:10;7.43;;;3.10;;
6825;SDS011;3451;52.476;13.316;2023-04-25T02:00:39;5.33;;;2.77;;
6825;SDS011;3451;52.476;13.316;2023-04-25T02:03:07;6.27;;;2.90;;
6825;SDS011;3451;52.476;13.316;2023-04-25T02:05:38;7.10;;;3.10;;
6825;SDS011;3451;52.476;13.316;2023-04-25T02:08:05;6.77;;;3.20;;
6825;SDS011;3451;52.476;13.316;2023-04-25T02:10:32;6.63;;;3.03;;
6825;SDS011;3451;52.476;13.316;2023-04-25T02:12:59;8.40;;;3.90;;
6825;SDS011;3451;52.476;13.316;2023-04-25T02:15:25;6.27;;;3.40;;
6825;SDS011;3451;52.476;13.316;2023-04-25T02:17:51;7.80;;;3.03;;
6825;SDS011;3451;52.476;13.316;2023-04-25T02:20:22;9.57;;;3.80;;
6825;SDS011;3451;52.476;13.316;2023-04-25T02:22:48;7.73;;;3.30;;
6825;SDS011;3451;52.476;13.316;2023-04-25T02:25:15;6.67;;;3.53;;
6825;SDS011;3451;52.476;13.316;2023-04-25T02:27:42;7.13;;;3.30;;
6825;SDS011;3451;52.476;13.316;2023-04-25T02:30:09;7.37;;;3.20;;
6825;SDS011;3451;52.476;13.316;2023-04-25T02:32:35;6.80;;;3.43;;
6825;SDS011;3451;52.476;13.316;2023-04-25T02:35:02;8.40;;;4.13;;
6825;SDS011;3451;52.476;13.316;2023-04-25T02:37:33;6.93;;;3.70;;
6825;SDS011;3451;52.476;13.316;2023-04-25T02:40:00;9.07;;;4.13;;
6825;SDS011;3451;52.476;13.316;2023-04-25T02:42:27;10.53;;;4.17;;
6825;SDS011;3451;52.476;13.316;2023-04-25T02:44:53;9.83;;;4.20;;
6825;SDS011;3451;52.476;13.316;2023-04-25T02:47:20;6.57;;;3.33;;
6825;SDS011;3451;52.476;13.316;2023-04-25T02:49:47;6.77;;;3.77;;
6825;SDS011;3451;52.476;13.316;2023-04-25T02:52:13;6.97;;;3.40;;
6825;SDS011;3451;52.476;13.316;2023-04-25T02:54:39;8.20;;;3.87;;
6825;SDS011;3451;52.476;13.316;2023-04-25T02:57:06;7.37;;;3.40;;
6825;SDS011;3451;52.476;13.316;2023-04-25T02:59:33;6.50;;;3.63;;
6825;SDS011;3451;52.476;13.316;2023-04-25T03:01:59;6.63;;;3.47;;
6825;SDS011;3451;52.476;13.316;2023-04-25T03:04:26;11.47;;;4.33;;
6825;SDS011;3451;52.476;13.316;2023-04-25T03:06:52;6.53;;;3.90;;
6825;SDS011;3451;52.476;13.316;2023-04-25T03:09:19;9.23;;;4.30;;
6825;SDS011;3451;52.476;13.316;2023-04-25T03:11:45;7.70;;;4.23;;
6825;SDS011;3451;52.476;13.316;2023-04-25T03:14:12;7.20;;;4.10;;
6825;SDS011;3451;52.476;13.316;2023-04-25T03:16:38;10.20;;;4.10;;
6825;SDS011;3451;52.476;13.316;2023-04-25T03:19:05;7.63;;;3.67;;
6825;SDS011;3451;52.476;13.316;2023-04-25T03:21:32;10.73;;;4.80;;
6825;SDS011;3451;52.476;13.316;2023-04-25T03:23:59;8.77;;;3.83;;
6825;SDS011;3451;52.476;13.316;2023-04-25T03:26:25;8.03;;;4.17;;
6825;SDS011;3451;52.476;13.316;2023-04-25T03:28:52;7.57;;;4.20;;
6825;SDS011;3451;52.476;13.316;2023-04-25T03:31:18;8.33;;;4.20;;
6825;SDS011;3451;52.476;13.316;2023-04-25T03:33:44;5.87;;;4.07;;
6825;SDS011;3451;52.476;13.316;2023-04-25T03:36:11;7.50;;;4.30;;
6825;SDS011;3451;52.476;13.316;2023-04-25T03:38:37;8.37;;;3.27;;
6825;SDS011;3451;52.476;13.316;2023-04-25T03:41:03;7.83;;;4.03;;
6825;SDS011;3451;52.476;13.316;2023-04-25T03:43:30;7.07;;;3.67;;
6825;SDS011;3451;52.476;13.316;2023-04-25T03:45:56;10.10;;;4.33;;
6825;SDS011;3451;52.476;13.316;2023-04-25T03:48:22;5.67;;;3.50;;
6825;SDS011;3451;52.476;13.316;2023-04-25T03:50:51;10.53;;;4.47;;
6825;SDS011;3451;52.476;13.316;2023-04-25T03:53:17;7.57;;;4.00;;
6825;SDS011;3451;52.476;13.316;2023-04-25T03:55:44;8.50;;;4.20;;
6825;SDS011;3451;52.476;13.316;2023-04-25T03:58:10;7.90;;;4.40;;
6825;SDS011;3451;52.476;13.316;2023-04-25T04:00:36;7.40;;;4.40;;
6825;SDS011;3451;52.476;13.316;2023-04-25T04:03:03;6.03;;;3.90;;
6825;SDS011;3451;52.476;13.316;2023-04-25T04:05:29;10.30;;;4.30;;
6825;SDS011;3451;52.476;13.316;2023-04-25T04:07:56;7.67;;;3.40;;
6825;SDS011;3451;52.476;13.316;2023-04-25T04:10:22;6.67;;;3.77;;
6825;SDS011;3451;52.476;13.316;2023-04-25T04:12:48;9.70;;;4.30;;
6825;SDS011;3451;52.476;13.316;2023-04-25T04:15:15;6.87;;;4.00;;
6825;SDS011;3451;52.476;13.316;2023-04-25T04:17:41;8.47;;;4.30;;
6825;SDS011;3451;52.476;13.316;2023-04-25T04:20:07;9.33;;;4.07;;
6825;SDS011;3451;52.476;13.316;2023-04-25T04:22:34;12.07;;;4.23;;
6825;SDS011;3451;52.476;13.316;2023-04-25T04:25:01;6.03;;;3.63;;
6825;SDS011;3451;52.476;13.316;2023-04-25T04:27:28;9.83;;;4.63;;
6825;SDS011;3451;52.476;13.316;2023-04-25T04:29:55;7.33;;;3.80;;
6825;SDS011;3451;52.476;13.316;2023-04-25T04:32:22;10.23;;;4.07;;
6825;SDS011;3451;52.476;13.316;2023-04-25T04:34:49;7.47;;;3.67;;
6825;SDS011;3451;52.476;13.316;2023-04-25T04:37:16;9.87;;;5.00;;
6825;SDS011;3451;52.476;13.316;2023-04-25T04:39:42;9.03;;;4.40;;
6825;SDS011;3451;52.476;13.316;2023-04-25T04:42:08;9.13;;;3.83;;
6825;SDS011;3451;52.476;13.316;2023-04-25T04:44:35;10.30;;;4.00;;
6825;SDS011;3451;52.476;13.316;2023-04-25T04:47:01;7.23;;;3.80;;
6825;SDS011;3451;52.476;13.316;2023-04-25T04:49:29;7.03;;;4.13;;
6825;SDS011;3451;52.476;13.316;2023-04-25T04:51:56;8.10;;;3.87;;
6825;SDS011;3451;52.476;13.316;2023-04-25T04:54:24;10.20;;;3.90;;
6825;SDS011;3451;52.476;13.316;2023-04-25T04:56:51;8.63;;;4.33;;
6825;SDS011;3451;52.476;13.316;2023-04-25T04:59:18;10.20;;;3.93;;
6825;SDS011;3451;52.476;13.316;2023-04-25T05:01:45;8.37;;;4.30;;
6825;SDS011;3451;52.476;13.316;2023-04-25T05:04:12;7.20;;;3.73;;
6825;SDS011;3451;52.476;13.316;2023-04-25T05:06:39;9.23;;;4.00;;
6825;SDS011;3451;52.476;13.316;2023-04-25T05:09:06;9.60;;;4.10;;
6825;SDS011;3451;52.476;13.316;2023-04-25T05:11:33;9.07;;;3.97;;
6825;SDS011;3451;52.476;13.316;2023-04-25T05:13:59;9.27;;;4.10;;
6825;SDS011;3451;52.476;13.316;2023-04-25T05:16:25;7.60;;;4.17;;
6825;SDS011;3451;52.476;13.316;2023-04-25T05:18:52;9.37;;;4.23;;
6825;SDS011;3451;52.476;13.316;2023-04-25T05:21:18;8.20;;;4.40;;
6825;SDS011;3451;52.476;13.316;2023-04-25T05:23:44;9.37;;;4.20;;
6825;SDS011;3451;52.476;13.316;2023-04-25T05:26:11;9.63;;;4.70;;
6825;SDS011;3451;52.476;13.316;2023-04-25T05:28:40;8.80;;;5.00;;
6825;SDS011;3451;52.476;13.316;2023-04-25T05:31:09;10.17;;;4.03;;
6825;SDS011;3451;52.476;13.316;2023-04-25T05:33:35;10.13;;;4.07;;
6825;SDS011;3451;52.476;13.316;2023-04-25T05:36:02;8.17;;;4.23;;
6825;SDS011;3451;52.476;13.316;2023-04-25T05:38:28;7.57;;;4.00;;
6825;SDS011;3451;52.476;13.316;2023-04-25T05:40:58;9.23;;;4.07;;
6825;SDS011;3451;52.476;13.316;2023-04-25T05:43:24;10.47;;;4.53;;
6825;SDS011;3451;52.476;13.316;2023-04-25T05:45:50;7.77;;;4.60;;
6825;SDS011;3451;52.476;13.316;2023-04-25T05:48:17;8.57;;;4.23;;
6825;SDS011;3451;52.476;13.316;2023-04-25T05:50:43;11.83;;;4.10;;
6825;SDS011;3451;52.476;13.316;2023-04-25T05:53:09;11.03;;;5.10;;
6825;SDS011;3451;52.476;13.316;2023-04-25T05:55:36;8.87;;;4.43;;
6825;SDS011;3451;52.476;13.316;2023-04-25T05:58:02;11.60;;;5.10;;
6825;SDS011;3451;52.476;13.316;2023-04-25T06:00:29;9.87;;;4.60;;
6825;SDS011;3451;52.476;13.316;2023-04-25T06:02:55;8.00;;;4.43;;
6825;SDS011;3451;52.476;13.316;2023-04-25T06:05:22;10.47;;;5.07;;
6825;SDS011;3451;52.476;13.316;2023-04-25T06:07:48;10.33;;;4.73;;
6825;SDS011;3451;52.476;13.316;2023-04-25T06:10:15;11.70;;;5.00;;
6825;SDS011;3451;52.476;13.316;2023-04-25T06:12:41;13.47;;;5.07;;
6825;SDS011;3451;52.476;13.316;2023-04-25T06:15:07;12.87;;;4.97;;
6825;SDS011;3451;52.476;13.316;2023-04-25T06:17:52;11.93;;;4.73;;
6825;SDS011;3451;52.476;13.316;2023-04-25T06:20:18;11.10;;;4.40;;
6825;SDS011;3451;52.476;13.316;2023-04-25T06:22:49;9.77;;;4.77;;
6825;SDS011;3451;52.476;13.316;2023-04-25T06:25:15;13.90;;;5.27;;
6825;SDS011;3451;52.476;13.316;2023-04-25T06:27:42;17.00;;;5.40;;
6825;SDS011;3451;52.476;13.316;2023-04-25T06:30:08;10.67;;;5.43;;
6825;SDS011;3451;52.476;13.316;2023-04-25T06:32:35;9.87;;;4.90;;
6825;SDS011;3451;52.476;13.316;2023-04-25T06:35:02;9.37;;;5.13;;
6825;SDS011;3451;52.476;13.316;2023-04-25T06:37:29;11.23;;;4.90;;
6825;SDS011;3451;52.476;13.316;2023-04-25T06:39:56;9.80;;;4.60;;
6825;SDS011;3451;52.476;13.316;2023-04-25T06:42:22;10.27;;;4.73;;
6825;SDS011;3451;52.476;13.316;2023-04-25T06:44:48;9.00;;;4.60;;
6825;SDS011;3451;52.476;13.316;2023-04-25T06:47:15;11.13;;;4.53;;
6825;SDS011;3451;52.476;13.316;2023-04-25T06:49:41;8.50;;;4.60;;
6825;SDS011;3451;52.476;13.316;2023-04-25T06:52:07;8.53;;;3.97;;
6825;SDS011;3451;52.476;13.316;2023-04-25T06:54:34;9.93;;;4.57;;
6825;SDS011;3451;52.476;13.316;2023-04-25T06:57:00;10.00;;;4.70;;
6825;SDS011;3451;52.476;13.316;2023-04-25T06:59:27;8.47;;;4.43;;
6825;SDS011;3451;52.476;13.316;2023-04-25T07:01:54;9.07;;;4.27;;
6825;SDS011;3451;52.476;13.316;2023-04-25T07:04:20;8.77;;;4.83;;
6825;SDS011;3451;52.476;13.316;2023-04-25T07:06:47;7.27;;;3.97;;
6825;SDS011;3451;52.476;13.316;2023-04-25T07:09:14;7.13;;;3.57;;
6825;SDS011;3451;52.476;13.316;2023-04-25T07:11:40;10.37;;;4.20;;
6825;SDS011;3451;52.476;13.316;2023-04-25T07:14:07;11.70;;;4.40;;
6825;SDS011;3451;52.476;13.316;2023-04-25T07:16:33;7.50;;;4.27;;
6825;SDS011;3451;52.476;13.316;2023-04-25T07:18:59;7.43;;;4.00;;
6825;SDS011;3451;52.476;13.316;2023-04-25T07:21:26;11.47;;;4.60;;
6825;SDS011;3451;52.476;13.316;2023-04-25T07:23:52;7.23;;;4.30;;
6825;SDS011;3451;52.476;13.316;2023-04-25T07:26:18;7.20;;;3.63;;
6825;SDS011;3451;52.476;13.316;2023-04-25T07:28:45;7.13;;;4.10;;
6825;SDS011;3451;52.476;13.316;2023-04-25T07:31:11;13.47;;;4.57;;
6825;SDS011;3451;52.476;13.316;2023-04-25T07:33:38;9.83;;;3.97;;
6825;SDS011;3451;52.476;13.316;2023-04-25T07:36:04;11.80;;;4.50;;
6825;SDS011;3451;52.476;13.316;2023-04-25T07:38:31;9.60;;;4.10;;
6825;SDS011;3451;52.476;13.316;2023-04-25T07:40:57;11.13;;;4.10;;
6825;SDS011;3451;52.476;13.316;2023-04-25T07:43:33;11.43;;;4.37;;
6825;SDS011;3451;52.476;13.316;2023-04-25T07:45:59;10.37;;;4.40;;
6825;SDS011;3451;52.476;13.316;2023-04-25T07:48:25;11.70;;;5.07;;
6825;SDS011;3451;52.476;13.316;2023-04-25T07:50:51;13.93;;;4.63;;
6825;SDS011;3451;52.476;13.316;2023-04-25T07:53:18;9.90;;;4.37;;
6825;SDS011;3451;52.476;13.316;2023-04-25T07:55:44;11.73;;;4.23;;
6825;SDS011;3451;52.476;13.316;2023-04-25T07:58:11;12.90;;;4.50;;
6825;SDS011;3451;52.476;13.316;2023-04-25T08:00:37;14.53;;;4.73;;
6825;SDS011;3451;52.476;13.316;2023-04-25T08:03:04;11.00;;;4.17;;
6825;SDS011;3451;52.476;13.316;2023-04-25T08:05:30;14.20;;;4.63;;
6825;SDS011;3451;52.476;13.316;2023-04-25T08:07:57;13.30;;;4.47;;
6825;SDS011;3451;52.476;13.316;2023-04-25T08:10:23;12.80;;;4.13;;
6825;SDS011;3451;52.476;13.316;2023-04-25T08:12:49;14.50;;;4.28;;
6825;SDS011;3451;52.476;13.316;2023-04-25T08:15:15;15.87;;;4.17;;
6825;SDS011;3451;52.476;13.316;2023-04-25T08:17:42;16.60;;;4.57;;
6825;SDS011;3451;52.476;13.316;2023-04-25T08:20:10;16.27;;;4.93;;
6825;SDS011;3451;52.476;13.316;2023-04-25T08:22:36;13.77;;;4.57;;
6825;SDS011;3451;52.476;13.316;2023-04-25T08:25:03;15.17;;;4.47;;
6825;SDS011;3451;52.476;13.316;2023-04-25T08:27:39;12.93;;;3.97;;
6825;SDS011;3451;52.476;13.316;2023-04-25T08:30:05;12.13;;;3.80;;
6825;SDS011;3451;52.476;13.316;2023-04-25T08:32:31;19.13;;;4.07;;
6825;SDS011;3451;52.476;13.316;2023-04-25T08:34:58;16.52;;;4.30;;
6825;SDS011;3451;52.476;13.316;2023-04-25T08:37:24;14.60;;;3.90;;
6825;SDS011;3451;52.476;13.316;2023-04-25T08:39:51;14.73;;;4.13;;
6825;SDS011;3451;52.476;13.316;2023-04-25T08:42:20;13.53;;;4.13;;
6825;SDS011;3451;52.476;13.316;2023-04-25T08:44:48;18.43;;;4.90;;
6825;SDS011;3451;52.476;13.316;2023-04-25T08:47:14;12.30;;;3.47;;
6825;SDS011;3451;52.476;13.316;2023-04-25T08:49:41;11.83;;;3.67;;
6825;SDS011;3451;52.476;13.316;2023-04-25T08:52:10;14.53;;;3.60;;
6825;SDS011;3451;52.476;13.316;2023-04-25T08:54:37;14.30;;;3.80;;
6825;SDS011;3451;52.476;13.316;2023-04-25T08:57:07;12.20;;;3.40;;
6825;SDS011;3451;52.476;13.316;2023-04-25T08:59:34;14.17;;;3.13;;
6825;SDS011;3451;52.476;13.316;2023-04-25T09:02:04;9.90;;;2.80;;
6825;SDS011;3451;52.476;13.316;2023-04-25T09:04:31;11.60;;;2.80;;
6825;SDS011;3451;52.476;13.316;2023-04-25T09:06:57;12.47;;;3.17;;
6825;SDS011;3451;52.476;13.316;2023-04-25T09:09:24;15.43;;;3.87;;
6825;SDS011;3451;52.476;13.316;2023-04-25T09:11:51;11.17;;;2.50;;
6825;SDS011;3451;52.476;13.316;2023-04-25T09:14:21;9.80;;;2.70;;
6825;SDS011;3451;52.476;13.316;2023-04-25T09:16:57;9.87;;;2.50;;
6825;SDS011;3451;52.476;13.316;2023-04-25T09:22:06;10.53;;;3.20;;
6825;SDS011;3451;52.476;13.316;2023-04-25T09:24:39;11.20;;;3.10;;
6825;SDS011;3451;52.476;13.316;2023-04-25T09:27:07;11.67;;;3.37;;
6825;SDS011;3451;52.476;13.316;2023-04-25T09:29:34;10.53;;;2.90;;
6825;SDS011;3451;52.476;13.316;2023-04-25T09:32:18;9.77;;;2.80;;
6825;SDS011;3451;52.476;13.316;2023-04-25T09:34:48;13.47;;;2.90;;
6825;SDS011;3451;52.476;13.316;2023-04-25T09:37:17;11.63;;;3.17;;
6825;SDS011;3451;52.476;13.316;2023-04-25T09:39:44;11.20;;;3.23;;
6825;SDS011;3451;52.476;13.316;2023-04-25T09:42:10;10.20;;;3.30;;
6825;SDS011;3451;52.476;13.316;2023-04-25T09:44:37;7.93;;;2.70;;
6825;SDS011;3451;52.476;13.316;2023-04-25T09:47:09;10.43;;;3.00;;
6825;SDS011;3451;52.476;13.316;2023-04-25T09:49:38;10.77;;;2.80;;
6825;SDS011;3451;52.476;13.316;2023-04-25T09:52:04;8.93;;;2.80;;
6825;SDS011;3451;52.476;13.316;2023-04-25T09:54:31;9.63;;;2.97;;
6825;SDS011;3451;52.476;13.316;2023-04-25T09:56:57;14.03;;;3.53;;
6825;SDS011;3451;52.476;13.316;2023-04-25T09:59:27;12.37;;;3.10;;
6825;SDS011;3451;52.476;13.316;2023-04-25T10:01:53;12.13;;;3.17;;
6825;SDS011;3451;52.476;13.316;2023-04-25T10:04:23;7.90;;;2.73;;
6825;SDS011;3451;52.476;13.316;2023-04-25T10:06:50;13.30;;;2.90;;
6825;SDS011;3451;52.476;13.316;2023-04-25T10:09:19;12.27;;;3.28;;
6825;SDS011;3451;52.476;13.316;2023-04-25T10:11:47;10.30;;;3.00;;
6825;SDS011;3451;52.476;13.316;2023-04-25T10:14:16;7.93;;;2.63;;
6825;SDS011;3451;52.476;13.316;2023-04-25T10:16:43;7.80;;;2.80;;
6825;SDS011;3451;52.476;13.316;2023-04-25T10:19:09;8.20;;;2.50;;
6825;SDS011;3451;52.476;13.316;2023-04-25T10:21:40;11.17;;;2.77;;
6825;SDS011;3451;52.476;13.316;2023-04-25T10:24:10;17.10;;;3.00;;
6825;SDS011;3451;52.476;13.316;2023-04-25T10:26:37;5.70;;;2.60;;
6825;SDS011;3451;52.476;13.316;2023-04-25T10:29:03;6.80;;;2.60;;
6825;SDS011;3451;52.476;13.316;2023-04-25T10:31:30;13.00;;;2.87;;
6825;SDS011;3451;52.476;13.316;2023-04-25T10:33:57;6.13;;;2.43;;
6825;SDS011;3451;52.476;13.316;2023-04-25T10:36:24;9.27;;;2.93;;
6825;SDS011;3451;52.476;13.316;2023-04-25T10:38:53;8.00;;;2.60;;
6825;SDS011;3451;52.476;13.316;2023-04-25T10:41:20;9.63;;;2.53;;
6825;SDS011;3451;52.476;13.316;2023-04-25T10:43:47;11.52;;;3.00;;
6825;SDS011;3451;52.476;13.316;2023-04-25T10:46:24;7.83;;;2.70;;
6825;SDS011;3451;52.476;13.316;2023-04-25T10:48:51;13.43;;;2.80;;
6825;SDS011;3451;52.476;13.316;2023-04-25T10:53:45;17.57;;;3.10;;
6825;SDS011;3451;52.476;13.316;2023-04-25T10:56:22;9.33;;;2.57;;
6825;SDS011;3451;52.476;13.316;2023-04-25T10:58:48;10.47;;;2.83;;
6825;SDS011;3451;52.476;13.316;2023-04-25T11:01:21;11.17;;;3.07;;
6825;SDS011;3451;52.476;13.316;2023-04-25T11:03:56;9.20;;;2.83;;
6825;SDS011;3451;52.476;13.316;2023-04-25T11:06:28;9.73;;;2.97;;
6825;SDS011;3451;52.476;13.316;2023-04-25T11:08:55;13.00;;;2.70;;
6825;SDS011;3451;52.476;13.316;2023-04-25T11:11:22;9.67;;;2.10;;
6825;SDS011;3451;52.476;13.316;2023-04-25T11:13:48;9.90;;;2.80;;
6825;SDS011;3451;52.476;13.316;2023-04-25T11:16:16;9.43;;;3.07;;
6825;SDS011;3451;52.476;13.316;2023-04-25T11:18:53;7.03;;;2.40;;
6825;SDS011;3451;52.476;13.316;2023-04-25T11:21:19;8.33;;;2.37;;
6825;SDS011;3451;52.476;13.316;2023-04-25T11:23:48;13.00;;;3.22;;
6825;SDS011;3451;52.476;13.316;2023-04-25T11:26:15;10.97;;;2.60;;
6825;SDS011;3451;52.476;13.316;2023-04-25T11:28:48;8.47;;;2.23;;
6825;SDS011;3451;52.476;13.316;2023-04-25T11:31:15;7.83;;;3.07;;
6825;SDS011;3451;52.476;13.316;2023-04-25T11:33:41;13.07;;;2.60;;
6825;SDS011;3451;52.476;13.316;2023-04-25T11:36:08;6.00;;;2.00;;
6825;SDS011;3451;52.476;13.316;2023-04-25T11:38:35;10.30;;;2.47;;
6825;SDS011;3451;52.476;13.316;2023-04-25T11:41:02;10.67;;;2.17;;
6825;SDS011;3451;52.476;13.316;2023-04-25T11:43:28;9.77;;;2.17;;
6825;SDS011;3451;52.476;13.316;2023-04-25T11:45:54;6.73;;;2.13;;
6825;SDS011;3451;52.476;13.316;2023-04-25T11:48:21;7.17;;;2.23;;
6825;SDS011;3451;52.476;13.316;2023-04-25T11:50:51;5.23;;;2.00;;
6825;SDS011;3451;52.476;13.316;2023-04-25T11:53:17;7.50;;;2.20;;
6825;SDS011;3451;52.476;13.316;2023-04-25T11:55:44;8.87;;;2.30;;
6825;SDS011;3451;52.476;13.316;2023-04-25T11:58:10;7.80;;;2.40;;
6825;SDS011;3451;52.476;13.316;2023-04-25T12:00:41;9.33;;;2.50;;
6825;SDS011;3451;52.476;13.316;2023-04-25T12:03:15;11.67;;;2.37;;
6825;SDS011;3451;52.476;13.316;2023-04-25T12:05:44;10.63;;;2.90;;
6825;SDS011;3451;52.476;13.316;2023-04-25T12:08:11;9.53;;;2.10;;
6825;SDS011;3451;52.476;13.316;2023-04-25T12:10:39;4.47;;;2.27;;
6825;SDS011;3451;52.476;13.316;2023-04-25T12:13:22;6.13;;;2.10;;
6825;SDS011;3451;52.476;13.316;2023-04-25T12:15:49;9.23;;;2.23;;
6825;SDS011;3451;52.476;13.316;2023-04-25T12:18:19;9.20;;;2.47;;
6825;SDS011;3451;52.476;13.316;2023-04-25T12:20:46;6.07;;;2.20;;
6825;SDS011;3451;52.476;13.316;2023-04-25T12:23:12;11.27;;;2.60;;
6825;SDS011;3451;52.476;13.316;2023-04-25T12:25:39;7.60;;;2.33;;
6825;SDS011;3451;52.476;13.316;2023-04-25T12:33:40;9.10;;;2.90;;
6825;SDS011;3451;52.476;13.316;2023-04-25T12:36:08;10.03;;;2.63;;
6825;SDS011;3451;52.476;13.316;2023-04-25T12:38:36;11.23;;;2.57;;
6825;SDS011;3451;52.476;13.316;2023-04-25T12:41:02;7.43;;;2.63;;
6825;SDS011;3451;52.476;13.316;2023-04-25T12:43:29;8.23;;;2.90;;
6825;SDS011;3451;52.476;13.316;2023-04-25T12:45:55;12.00;;;2.77;;
6825;SDS011;3451;52.476;13.316;2023-04-25T12:48:22;8.47;;;2.63;;
6825;SDS011;3451;52.476;13.316;2023-04-25T12:50:49;6.57;;;2.87;;
6825;SDS011;3451;52.476;13.316;2023-04-25T12:53:17;5.40;;;2.30;;
6825;SDS011;3451;52.476;13.316;2023-04-25T12:55:43;7.70;;;2.30;;
6825;SDS011;3451;52.476;13.316;2023-04-25T12:58:12;10.25;;;2.97;;
6825;SDS011;3451;52.476;13.316;2023-04-25T13:00:39;8.65;;;2.53;;
6825;SDS011;3451;52.476;13.316;2023-04-25T13:03:05;6.88;;;2.30;;
6825;SDS011;3451;52.476;13.316;2023-04-25T13:05:32;4.73;;;2.13;;
6825;SDS011;3451;52.476;13.316;2023-04-25T13:07:58;6.87;;;2.20;;
6825;SDS011;3451;52.476;13.316;2023-04-25T13:10:25;7.70;;;2.20;;
6825;SDS011;3451;52.476;13.316;2023-04-25T13:12:51;6.37;;;2.00;;
6825;SDS011;3451;52.476;13.316;2023-04-25T13:15:18;5.45;;;1.70;;
6825;SDS011;3451;52.476;13.316;2023-04-25T13:17:44;3.83;;;1.50;;
6825;SDS011;3451;52.476;13.316;2023-04-25T13:20:10;8.02;;;1.85;;
6825;SDS011;3451;52.476;13.316;2023-04-25T13:22:37;5.87;;;1.80;;
6825;SDS011;3451;52.476;13.316;2023-04-25T13:25:05;9.57;;;2.13;;
6825;SDS011;3451;52.476;13.316;2023-04-25T13:27:32;9.20;;;1.70;;
6825;SDS011;3451;52.476;13.316;2023-04-25T13:30:00;5.63;;;2.10;;
6825;SDS011;3451;52.476;13.316;2023-04-25T13:32:27;5.60;;;2.07;;
6825;SDS011;3451;52.476;13.316;2023-04-25T13:34:53;6.53;;;2.00;;
6825;SDS011;3451;52.476;13.316;2023-04-25T13:37:20;9.77;;;1.93;;
6825;SDS011;3451;52.476;13.316;2023-04-25T13:39:46;5.10;;;1.63;;
6825;SDS011;3451;52.476;13.316;2023-04-25T13:42:12;7.53;;;1.80;;
6825;SDS011;3451;52.476;13.316;2023-04-25T13:44:39;7.33;;;2.07;;
6825;SDS011;3451;52.476;13.316;2023-04-25T13:47:05;5.80;;;2.10;;
6825;SDS011;3451;52.476;13.316;2023-04-25T13:49:32;6.97;;;1.77;;
6825;SDS011;3451;52.476;13.316;2023-04-25T13:51:59;4.57;;;1.83;;
6825;SDS011;3451;52.476;13.316;2023-04-25T13:54:25;3.63;;;1.80;;
6825;SDS011;3451;52.476;13.316;2023-04-25T13:56:51;5.53;;;2.00;;
6825;SDS011;3451;52.476;13.316;2023-04-25T13:59:26;5.53;;;1.90;;
6825;SDS011;3451;52.476;13.316;2023-04-25T14:01:53;6.70;;;1.70;;
6825;SDS011;3451;52.476;13.316;2023-04-25T14:04:19;8.57;;;2.37;;
6825;SDS011;3451;52.476;13.316;2023-04-25T14:06:46;9.77;;;2.70;;
6825;SDS011;3451;52.476;13.316;2023-04-25T14:09:12;5.83;;;2.00;;
6825;SDS011;3451;52.476;13.316;2023-04-25T14:11:39;10.70;;;1.93;;
6825;SDS011;3451;52.476;13.316;2023-04-25T14:14:05;9.60;;;2.20;;
6825;SDS011;3451;52.476;13.316;2023-04-25T14:16:31;9.40;;;2.30;;
6825;SDS011;3451;52.476;13.316;2023-04-25T14:18:58;8.27;;;1.87;;
6825;SDS011;3451;52.476;13.316;2023-04-25T14:21:24;6.73;;;1.97;;
6825;SDS011;3451;52.476;13.316;2023-04-25T14:23:51;11.67;;;1.80;;
6825;SDS011;3451;52.476;13.316;2023-04-25T14:26:18;9.83;;;2.00;;
6825;SDS011;3451;52.476;13.316;2023-04-25T14:28:44;9.47;;;1.83;;
6825;SDS011;3451;52.476;13.316;2023-04-25T14:31:11;3.73;;;1.57;;
6825;SDS011;3451;52.476;13.316;2023-04-25T14:33:37;5.40;;;1.60;;
6825;SDS011;3451;52.476;13.316;2023-04-25T14:36:07;5.33;;;1.70;;
6825;SDS011;3451;52.476;13.316;2023-04-25T14:38:34;7.47;;;1.90;;
6825;SDS011;3451;52.476;13.316;2023-04-25T14:41:00;4.47;;;1.60;;
6825;SDS011;3451;52.476;13.316;2023-04-25T14:43:27;5.33;;;1.60;;
6825;SDS011;3451;52.476;13.316;2023-04-25T14:45:53;6.77;;;1.70;;
6825;SDS011;3451;52.476;13.316;2023-04-25T14:48:23;6.30;;;1.70;;
6825;SDS011;3451;52.476;13.316;2023-04-25T14:50:49;6.00;;;1.97;;
6825;SDS011;3451;52.476;13.316;2023-04-25T14:53:16;6.70;;;1.77;;
6825;SDS011;3451;52.476;13.316;2023-04-25T14:55:42;7.87;;;2.07;;
6825;SDS011;3451;52.476;13.316;2023-04-25T14:58:09;6.20;;;1.83;;
6825;SDS011;3451;52.476;13.316;2023-04-25T15:00:35;5.77;;;2.10;;
6825;SDS011;3451;52.476;13.316;2023-04-25T15:03:02;4.90;;;1.97;;
6825;SDS011;3451;52.476;13.316;2023-04-25T15:05:29;7.13;;;1.77;;
6825;SDS011;3451;52.476;13.316;2023-04-25T15:07:55;5.70;;;2.10;;